sensor_id;sensor_type;location;lat;lon;timestamp;pressure;altitude;pressure_sealevel;temperature;humidity
47815;BME280;33579;50.058;18.130;2023-05-12T00:00:16;99291.16;;;14.57;74.35
47815;BME280;33579;50.058;18.130;2023-05-12T00:01:19;99290.19;;;14.58;74.41
47815;BME280;33579;50.058;18.130;2023-05-12T00:02:21;99284.22;;;14.56;74.40
47815;BME280;33579;50.058;18.130;2023-05-12T00:03:22;99285.38;;;14.53;75.27
47815;BME280;33579;50.058;18.130;2023-05-12T00:04:24;99290.97;;;14.50;75.21
47815;BME280;33579;50.058;18.130;2023-05-12T00:05:26;99302.38;;;14.51;75.25
47815;BME280;33579;50.058;18.130;2023-05-12T00:06:28;99299.75;;;14.51;75.56
47815;BME280;33579;50.058;18.130;2023-05-12T00:07:29;99302.03;;;14.45;75.79
47815;BME280;33579;50.058;18.130;2023-05-12T00:08:31;99294.09;;;14.45;76.08
47815;BME280;33579;50.058;18.130;2023-05-12T00:09:32;99304.69;;;14.45;76.05
47815;BME280;33579;50.058;18.130;2023-05-12T00:10:34;99303.63;;;14.38;76.75
47815;BME280;33579;50.058;18.130;2023-05-12T00:11:36;99303.78;;;14.37;76.50
47815;BME280;33579;50.058;18.130;2023-05-12T00:12:37;99297.00;;;14.34;76.67
47815;BME280;33579;50.058;18.130;2023-05-12T00:13:39;99304.09;;;14.33;76.91
47815;BME280;33579;50.058;18.130;2023-05-12T00:14:41;99300.31;;;14.36;76.50
47815;BME280;33579;50.058;18.130;2023-05-12T00:15:42;99297.22;;;14.41;76.64
47815;BME280;33579;50.058;18.130;2023-05-12T00:16:44;99299.88;;;14.41;76.61
47815;BME280;33579;50.058;18.130;2023-05-12T00:17:45;99293.13;;;14.46;76.52
47815;BME280;33579;50.058;18.130;2023-05-12T00:18:47;99302.91;;;14.54;76.52
47815;BME280;33579;50.058;18.130;2023-05-12T00:19:49;99300.16;;;14.38;77.04
47815;BME280;33579;50.058;18.130;2023-05-12T00:20:50;99297.72;;;14.44;77.19
47815;BME280;33579;50.058;18.130;2023-05-12T00:21:52;99303.19;;;14.43;77.66
47815;BME280;33579;50.058;18.130;2023-05-12T00:22:53;99300.91;;;14.22;77.47
47815;BME280;33579;50.058;18.130;2023-05-12T00:23:55;99300.38;;;14.18;78.25
47815;BME280;33579;50.058;18.130;2023-05-12T00:24:57;99293.22;;;14.10;78.26
47815;BME280;33579;50.058;18.130;2023-05-12T00:25:58;99296.06;;;14.17;77.41
47815;BME280;33579;50.058;18.130;2023-05-12T00:27:00;99298.00;;;14.33;78.92
47815;BME280;33579;50.058;18.130;2023-05-12T00:28:02;99298.19;;;14.40;79.22
47815;BME280;33579;50.058;18.130;2023-05-12T00:29:03;99305.97;;;14.41;78.45
47815;BME280;33579;50.058;18.130;2023-05-12T00:30:05;99302.84;;;14.46;77.76
47815;BME280;33579;50.058;18.130;2023-05-12T00:31:07;99295.38;;;14.41;77.47
47815;BME280;33579;50.058;18.130;2023-05-12T00:32:08;99300.53;;;14.43;77.72
47815;BME280;33579;50.058;18.130;2023-05-12T00:33:10;99305.97;;;14.41;77.52
47815;BME280;33579;50.058;18.130;2023-05-12T00:34:12;99309.47;;;14.42;77.54
47815;BME280;33579;50.058;18.130;2023-05-12T00:35:15;99305.97;;;14.41;77.75
47815;BME280;33579;50.058;18.130;2023-05-12T00:36:16;99298.88;;;14.42;77.30
47815;BME280;33579;50.058;18.130;2023-05-12T00:37:18;99304.69;;;14.45;77.24
47815;BME280;33579;50.058;18.130;2023-05-12T00:38:19;99299.75;;;14.51;76.66
47815;BME280;33579;50.058;18.130;2023-05-12T00:39:21;99300.06;;;14.47;76.61
47815;BME280;33579;50.058;18.130;2023-05-12T00:40:23;99298.09;;;14.50;76.98
47815;BME280;33579;50.058;18.130;2023-05-12T00:41:24;99294.78;;;14.47;77.67
47815;BME280;33579;50.058;18.130;2023-05-12T00:42:26;99297.25;;;14.49;77.81
47815;BME280;33579;50.058;18.130;2023-05-12T00:43:28;99297.56;;;14.46;76.67
47815;BME280;33579;50.058;18.130;2023-05-12T00:44:29;99298.91;;;14.50;77.68
47815;BME280;33579;50.058;18.130;2023-05-12T00:45:31;99295.59;;;14.48;77.50
47815;BME280;33579;50.058;18.130;2023-05-12T00:46:32;99299.88;;;14.49;77.14
47815;BME280;33579;50.058;18.130;2023-05-12T00:47:34;99294.59;;;14.49;77.03
47815;BME280;33579;50.058;18.130;2023-05-12T00:48:36;99299.75;;;14.51;77.16
47815;BME280;33579;50.058;18.130;2023-05-12T00:49:38;99305.56;;;14.54;77.03
47815;BME280;33579;50.058;18.130;2023-05-12T00:50:39;99306.38;;;14.55;77.48
47815;BME280;33579;50.058;18.130;2023-05-12T00:51:42;99304.38;;;14.48;78.71
47815;BME280;33579;50.058;18.130;2023-05-12T00:52:45;99305.66;;;14.44;79.21
47815;BME280;33579;50.058;18.130;2023-05-12T00:53:48;99303.63;;;14.38;79.53
47815;BME280;33579;50.058;18.130;2023-05-12T00:54:51;99309.84;;;14.29;80.65
47815;BME280;33579;50.058;18.130;2023-05-12T00:55:53;99304.16;;;14.15;80.98
47815;BME280;33579;50.058;18.130;2023-05-12T00:56:56;99303.13;;;14.08;81.02
47815;BME280;33579;50.058;18.130;2023-05-12T00:57:58;99303.72;;;14.02;80.78
47815;BME280;33579;50.058;18.130;2023-05-12T00:59:01;99306.50;;;14.00;80.41
47815;BME280;33579;50.058;18.130;2023-05-12T01:00:03;99303.84;;;14.00;80.44
47815;BME280;33579;50.058;18.130;2023-05-12T01:01:05;99303.84;;;14.00;80.57
47815;BME280;33579;50.058;18.130;2023-05-12T01:02:06;99308.47;;;13.98;80.83
47815;BME280;33579;50.058;18.130;2023-05-12T01:03:08;99304.06;;;14.07;82.40
47815;BME280;33579;50.058;18.130;2023-05-12T01:04:10;99309.63;;;13.96;81.64
47815;BME280;33579;50.058;18.130;2023-05-12T01:05:12;99306.91;;;13.87;81.51
47815;BME280;33579;50.058;18.130;2023-05-12T01:06:18;99309.63;;;13.96;82.58
47815;BME280;33579;50.058;18.130;2023-05-12T01:07:23;99301.97;;;13.93;81.88
47815;BME280;33579;50.058;18.130;2023-05-12T01:08:26;99307.59;;;13.89;81.46
47815;BME280;33579;50.058;18.130;2023-05-12T01:09:28;99307.22;;;13.84;81.92
47815;BME280;33579;50.058;18.130;2023-05-12T01:10:31;99311.59;;;13.75;82.09
47815;BME280;33579;50.058;18.130;2023-05-12T01:11:33;99311.09;;;13.72;82.13
47815;BME280;33579;50.058;18.130;2023-05-12T01:12:35;99303.50;;;13.77;81.77
47815;BME280;33579;50.058;18.130;2023-05-12T01:13:36;99309.34;;;13.81;81.43
47815;BME280;33579;50.058;18.130;2023-05-12T01:14:39;99312.88;;;13.71;81.60
47815;BME280;33579;50.058;18.130;2023-05-12T01:15:44;99313.19;;;13.68;81.61
47815;BME280;33579;50.058;18.130;2023-05-12T01:16:50;99312.75;;;13.73;81.33
47815;BME280;33579;50.058;18.130;2023-05-12T01:17:56;99314.72;;;13.71;81.72
47815;BME280;33579;50.058;18.130;2023-05-12T01:19:04;99310.22;;;13.71;81.51
47815;BME280;33579;50.058;18.130;2023-05-12T01:20:07;99311.75;;;13.74;81.29
47815;BME280;33579;50.058;18.130;2023-05-12T01:21:10;99306.78;;;13.71;81.69
47815;BME280;33579;50.058;18.130;2023-05-12T01:22:11;99310.00;;;13.65;82.00
47815;BME280;33579;50.058;18.130;2023-05-12T01:23:17;99310.31;;;13.61;82.17
47815;BME280;33579;50.058;18.130;2023-05-12T01:24:20;99317.56;;;13.59;81.90
47815;BME280;33579;50.058;18.130;2023-05-12T01:25:26;99313.94;;;13.60;81.66
47815;BME280;33579;50.058;18.130;2023-05-12T01:26:29;99309.09;;;13.56;82.12
47815;BME280;33579;50.058;18.130;2023-05-12T01:27:32;99314.69;;;13.53;82.35
47815;BME280;33579;50.058;18.130;2023-05-12T01:28:35;99317.47;;;13.51;82.35
47815;BME280;33579;50.058;18.130;2023-05-12T01:29:39;99312.78;;;13.45;82.86
47815;BME280;33579;50.058;18.130;2023-05-12T01:30:41;99316.13;;;13.37;83.03
47815;BME280;33579;50.058;18.130;2023-05-12T01:31:47;99312.91;;;13.43;82.91
47815;BME280;33579;50.058;18.130;2023-05-12T01:32:49;99321.28;;;13.39;84.41
47815;BME280;33579;50.058;18.130;2023-05-12T01:33:52;99318.50;;;13.40;85.21
47815;BME280;33579;50.058;18.130;2023-05-12T01:34:54;99314.78;;;13.33;84.57
47815;BME280;33579;50.058;18.130;2023-05-12T01:35:55;99323.06;;;13.20;84.87
47815;BME280;33579;50.058;18.130;2023-05-12T01:36:57;99322.88;;;13.03;85.11
47815;BME280;33579;50.058;18.130;2023-05-12T01:37:59;99328.50;;;12.90;85.76
47815;BME280;33579;50.058;18.130;2023-05-12T01:39:01;99322.69;;;12.87;85.90
47815;BME280;33579;50.058;18.130;2023-05-12T01:40:03;99318.22;;;12.87;85.37
47815;BME280;33579;50.058;18.130;2023-05-12T01:41:05;99327.28;;;12.85;85.04
47815;BME280;33579;50.058;18.130;2023-05-12T01:42:07;99330.59;;;12.77;84.37
47815;BME280;33579;50.058;18.130;2023-05-12T01:43:08;99322.19;;;12.63;84.16
47815;BME280;33579;50.058;18.130;2023-05-12T01:44:10;99330.16;;;12.54;84.65
47815;BME280;33579;50.058;18.130;2023-05-12T01:45:12;99333.06;;;12.50;84.51
47815;BME280;33579;50.058;18.130;2023-05-12T01:46:14;99327.38;;;12.45;84.84
47815;BME280;33579;50.058;18.130;2023-05-12T01:47:17;99320.72;;;12.41;85.04
47815;BME280;33579;50.058;18.130;2023-05-12T01:48:26;99332.25;;;12.40;85.76
47815;BME280;33579;50.058;18.130;2023-05-12T01:49:29;99329.22;;;12.35;85.68
47815;BME280;33579;50.058;18.130;2023-05-12T01:50:31;99328.50;;;12.33;86.04
47815;BME280;33579;50.058;18.130;2023-05-12T01:51:33;99328.25;;;12.36;86.09
47815;BME280;33579;50.058;18.130;2023-05-12T01:52:35;99332.00;;;12.33;86.04
47815;BME280;33579;50.058;18.130;2023-05-12T01:53:38;99330.47;;;12.31;86.25
47815;BME280;33579;50.058;18.130;2023-05-12T01:54:40;99327.00;;;12.30;87.10
47815;BME280;33579;50.058;18.130;2023-05-12T01:55:42;99335.63;;;12.22;87.94
47815;BME280;33579;50.058;18.130;2023-05-12T01:56:43;99334.78;;;12.22;87.38
47815;BME280;33579;50.058;18.130;2023-05-12T01:57:45;99330.22;;;12.14;88.42
47815;BME280;33579;50.058;18.130;2023-05-12T01:58:47;99331.19;;;12.13;88.17
47815;BME280;33579;50.058;18.130;2023-05-12T01:59:48;99332.84;;;12.14;88.21
47815;BME280;33579;50.058;18.130;2023-05-12T02:00:50;99328.41;;;12.05;88.96
47815;BME280;33579;50.058;18.130;2023-05-12T02:01:52;99326.88;;;12.02;89.37
47815;BME280;33579;50.058;18.130;2023-05-12T02:03:00;99330.94;;;12.06;89.23
47815;BME280;33579;50.058;18.130;2023-05-12T02:04:02;99321.34;;;12.05;89.92
47815;BME280;33579;50.058;18.130;2023-05-12T02:05:05;99326.75;;;12.04;89.84
47815;BME280;33579;50.058;18.130;2023-05-12T02:06:06;99329.09;;;12.07;90.25
47815;BME280;33579;50.058;18.130;2023-05-12T02:07:08;99322.16;;;12.06;90.28
47815;BME280;33579;50.058;18.130;2023-05-12T02:08:10;99320.06;;;12.00;90.61
47815;BME280;33579;50.058;18.130;2023-05-12T02:09:11;99324.81;;;12.06;90.57
47815;BME280;33579;50.058;18.130;2023-05-12T02:10:13;99324.00;;;12.05;91.39
47815;BME280;33579;50.058;18.130;2023-05-12T02:11:15;99326.75;;;12.04;91.15
47815;BME280;33579;50.058;18.130;2023-05-12T02:12:16;99322.72;;;12.00;90.84
47815;BME280;33579;50.058;18.130;2023-05-12T02:13:18;99323.41;;;11.92;90.44
47815;BME280;33579;50.058;18.130;2023-05-12T02:14:19;99323.69;;;11.79;90.57
47815;BME280;33579;50.058;18.130;2023-05-12T02:15:21;99329.78;;;11.70;91.25
47815;BME280;33579;50.058;18.130;2023-05-12T02:16:23;99330.34;;;11.73;91.03
47815;BME280;33579;50.058;18.130;2023-05-12T02:17:24;99333.66;;;11.75;90.90
47815;BME280;33579;50.058;18.130;2023-05-12T02:18:26;99323.00;;;11.67;91.06
47815;BME280;33579;50.058;18.130;2023-05-12T02:19:28;99325.06;;;11.63;91.18
47815;BME280;33579;50.058;18.130;2023-05-12T02:20:31;99326.44;;;11.67;91.03
47815;BME280;33579;50.058;18.130;2023-05-12T02:21:33;99326.44;;;11.67;91.04
47815;BME280;33579;50.058;18.130;2023-05-12T02:22:35;99326.03;;;11.62;91.30
47815;BME280;33579;50.058;18.130;2023-05-12T02:23:36;99331.31;;;11.62;91.26
47815;BME280;33579;50.058;18.130;2023-05-12T02:24:38;99324.63;;;11.48;91.26
47815;BME280;33579;50.058;18.130;2023-05-12T02:25:40;99319.75;;;11.44;91.45
47815;BME280;33579;50.058;18.130;2023-05-12T02:26:42;99328.34;;;11.36;91.71
47815;BME280;33579;50.058;18.130;2023-05-12T02:27:45;99326.81;;;11.33;92.53
47815;BME280;33579;50.058;18.130;2023-05-12T02:28:46;99326.25;;;11.30;93.35
47815;BME280;33579;50.058;18.130;2023-05-12T02:29:48;99329.72;;;11.30;93.51
47815;BME280;33579;50.058;18.130;2023-05-12T02:30:51;99328.06;;;11.29;93.54
47815;BME280;33579;50.058;18.130;2023-05-12T02:31:53;99330.41;;;11.22;92.92
47815;BME280;33579;50.058;18.130;2023-05-12T02:32:55;99321.22;;;11.17;92.50
47815;BME280;33579;50.058;18.130;2023-05-12T02:33:57;99322.91;;;11.18;92.33
47815;BME280;33579;50.058;18.130;2023-05-12T02:34:58;99332.47;;;11.19;92.39
47815;BME280;33579;50.058;18.130;2023-05-12T02:36:00;99332.91;;;11.24;92.47
47815;BME280;33579;50.058;18.130;2023-05-12T02:37:02;99332.91;;;11.24;92.91
47815;BME280;33579;50.058;18.130;2023-05-12T02:38:04;99331.38;;;11.21;92.61
47815;BME280;33579;50.058;18.130;2023-05-12T02:39:06;99339.25;;;11.21;92.09
47815;BME280;33579;50.058;18.130;2023-05-12T02:40:08;99338.69;;;11.18;91.46
47815;BME280;33579;50.058;18.130;2023-05-12T02:41:09;99330.06;;;11.06;91.95
47815;BME280;33579;50.058;18.130;2023-05-12T02:42:11;99330.91;;;11.06;92.49
47815;BME280;33579;50.058;18.130;2023-05-12T02:43:13;99327.56;;;11.04;93.63
47815;BME280;33579;50.058;18.130;2023-05-12T02:44:15;99323.00;;;11.06;93.61
47815;BME280;33579;50.058;18.130;2023-05-12T02:45:16;99327.69;;;11.03;93.99
47815;BME280;33579;50.058;18.130;2023-05-12T02:46:18;99327.53;;;10.94;95.22
47815;BME280;33579;50.058;18.130;2023-05-12T02:47:20;99331.84;;;10.95;95.58
47815;BME280;33579;50.058;18.130;2023-05-12T02:48:21;99332.81;;;10.94;95.79
47815;BME280;33579;50.058;18.130;2023-05-12T02:49:23;99333.34;;;10.98;95.28
47815;BME280;33579;50.058;18.130;2023-05-12T02:50:25;99334.47;;;10.95;95.45
47815;BME280;33579;50.058;18.130;2023-05-12T02:51:27;99333.50;;;10.96;95.29
47815;BME280;33579;50.058;18.130;2023-05-12T02:52:28;99333.50;;;10.96;95.29
47815;BME280;33579;50.058;18.130;2023-05-12T02:53:30;99338.78;;;11.06;95.34
47815;BME280;33579;50.058;18.130;2023-05-12T02:54:31;99343.09;;;11.07;94.92
47815;BME280;33579;50.058;18.130;2023-05-12T02:55:33;99340.47;;;11.07;94.90
47815;BME280;33579;50.058;18.130;2023-05-12T02:56:34;99331.59;;;11.08;94.92
47815;BME280;33579;50.058;18.130;2023-05-12T02:57:36;99334.88;;;11.01;95.78
47815;BME280;33579;50.058;18.130;2023-05-12T02:58:38;99347.66;;;11.05;95.74
47815;BME280;33579;50.058;18.130;2023-05-12T02:59:39;99344.91;;;11.07;95.39
47815;BME280;33579;50.058;18.130;2023-05-12T03:00:41;99339.63;;;11.07;94.84
47815;BME280;33579;50.058;18.130;2023-05-12T03:01:42;99341.44;;;11.06;94.32
47815;BME280;33579;50.058;18.130;2023-05-12T03:02:44;99339.34;;;11.00;93.87
47815;BME280;33579;50.058;18.130;2023-05-12T03:03:46;99340.69;;;10.94;94.39
47815;BME280;33579;50.058;18.130;2023-05-12T03:04:48;99344.31;;;10.72;96.29
47815;BME280;33579;50.058;18.130;2023-05-12T03:05:50;99346.28;;;10.80;96.15
47815;BME280;33579;50.058;18.130;2023-05-12T03:06:51;99346.06;;;10.83;96.32
47815;BME280;33579;50.058;18.130;2023-05-12T03:07:53;99342.31;;;10.86;96.32
47815;BME280;33579;50.058;18.130;2023-05-12T03:08:54;99344.41;;;10.92;96.45
47815;BME280;33579;50.058;18.130;2023-05-12T03:09:56;99338.38;;;11.01;97.76
47815;BME280;33579;50.058;18.130;2023-05-12T03:10:58;99339.03;;;10.93;97.03
47815;BME280;33579;50.058;18.130;2023-05-12T03:11:59;99351.38;;;11.03;99.60
47815;BME280;33579;50.058;18.130;2023-05-12T03:13:02;99342.66;;;11.02;99.00
47815;BME280;33579;50.058;18.130;2023-05-12T03:14:03;99349.88;;;11.00;97.73
47815;BME280;33579;50.058;18.130;2023-05-12T03:15:05;99337.91;;;10.96;96.22
47815;BME280;33579;50.058;18.130;2023-05-12T03:16:07;99350.66;;;10.91;95.54
47815;BME280;33579;50.058;18.130;2023-05-12T03:17:09;99345.13;;;10.94;95.31
47815;BME280;33579;50.058;18.130;2023-05-12T03:18:10;99345.31;;;11.02;95.38
47815;BME280;33579;50.058;18.130;2023-05-12T03:19:12;99344.25;;;10.83;96.14
47815;BME280;33579;50.058;18.130;2023-05-12T03:20:14;99342.88;;;10.58;97.74
47815;BME280;33579;50.058;18.130;2023-05-12T03:21:16;99344.16;;;10.64;98.92
47815;BME280;33579;50.058;18.130;2023-05-12T03:22:17;99352.41;;;10.80;98.57
47815;BME280;33579;50.058;18.130;2023-05-12T03:23:19;99346.78;;;10.95;99.92
47815;BME280;33579;50.058;18.130;2023-05-12T03:24:20;99345.00;;;10.95;98.26
47815;BME280;33579;50.058;18.130;2023-05-12T03:25:22;99341.78;;;10.92;97.26
47815;BME280;33579;50.058;18.130;2023-05-12T03:26:23;99346.22;;;10.91;96.92
47815;BME280;33579;50.058;18.130;2023-05-12T03:27:25;99344.84;;;10.97;96.53
47815;BME280;33579;50.058;18.130;2023-05-12T03:28:27;99353.47;;;10.99;95.57
47815;BME280;33579;50.058;18.130;2023-05-12T03:29:29;99345.69;;;10.98;94.63
47815;BME280;33579;50.058;18.130;2023-05-12T03:30:31;99346.94;;;10.93;94.51
47815;BME280;33579;50.058;18.130;2023-05-12T03:31:32;99346.50;;;10.98;94.29
47815;BME280;33579;50.058;18.130;2023-05-12T03:32:34;99347.78;;;11.04;93.90
47815;BME280;33579;50.058;18.130;2023-05-12T03:33:36;99344.75;;;11.08;93.19
47815;BME280;33579;50.058;18.130;2023-05-12T03:34:37;99346.16;;;11.13;92.95
47815;BME280;33579;50.058;18.130;2023-05-12T03:35:39;99344.91;;;11.07;92.41
47815;BME280;33579;50.058;18.130;2023-05-12T03:36:40;99349.59;;;11.03;91.85
47815;BME280;33579;50.058;18.130;2023-05-12T03:37:42;99351.38;;;11.03;91.51
47815;BME280;33579;50.058;18.130;2023-05-12T03:38:44;99356.09;;;10.99;91.03
47815;BME280;33579;50.058;18.130;2023-05-12T03:39:47;99357.31;;;10.95;90.40
47815;BME280;33579;50.058;18.130;2023-05-12T03:40:48;99355.91;;;10.91;90.55
47815;BME280;33579;50.058;18.130;2023-05-12T03:41:50;99353.81;;;10.85;90.46
47815;BME280;33579;50.058;18.130;2023-05-12T03:42:52;99353.09;;;10.82;90.93
47815;BME280;33579;50.058;18.130;2023-05-12T03:43:53;99351.97;;;10.75;91.14
47815;BME280;33579;50.058;18.130;2023-05-12T03:44:55;99345.75;;;10.76;91.01
47815;BME280;33579;50.058;18.130;2023-05-12T03:45:57;99349.66;;;10.82;91.03
47815;BME280;33579;50.058;18.130;2023-05-12T03:46:58;99356.19;;;10.88;92.57
47815;BME280;33579;50.058;18.130;2023-05-12T03:48:00;99356.88;;;10.90;92.60
47815;BME280;33579;50.058;18.130;2023-05-12T03:49:02;99362.97;;;10.90;92.63
47815;BME280;33579;50.058;18.130;2023-05-12T03:50:05;99353.56;;;10.88;92.72
47815;BME280;33579;50.058;18.130;2023-05-12T03:51:07;99355.47;;;10.86;93.14
47815;BME280;33579;50.058;18.130;2023-05-12T03:52:09;99363.50;;;10.84;93.16
47815;BME280;33579;50.058;18.130;2023-05-12T03:53:11;99353.56;;;10.88;93.21
47815;BME280;33579;50.058;18.130;2023-05-12T03:54:12;99355.34;;;10.87;92.87
47815;BME280;33579;50.058;18.130;2023-05-12T03:55:17;99362.84;;;10.92;93.05
47815;BME280;33579;50.058;18.130;2023-05-12T03:56:18;99363.81;;;10.91;93.20
47815;BME280;33579;50.058;18.130;2023-05-12T03:57:21;99363.81;;;10.91;92.80
47815;BME280;33579;50.058;18.130;2023-05-12T03:58:23;99363.66;;;10.92;92.93
47815;BME280;33579;50.058;18.130;2023-05-12T03:59:24;99366.44;;;10.91;93.37
47815;BME280;33579;50.058;18.130;2023-05-12T04:00:26;99368.22;;;10.90;93.63
47815;BME280;33579;50.058;18.130;2023-05-12T04:01:27;99365.38;;;10.93;93.33
47815;BME280;33579;50.058;18.130;2023-05-12T04:02:29;99367.03;;;10.94;93.24
47815;BME280;33579;50.058;18.130;2023-05-12T04:03:31;99363.81;;;10.91;92.67
47815;BME280;33579;50.058;18.130;2023-05-12T04:04:33;99363.53;;;10.94;92.67
47815;BME280;33579;50.058;18.130;2023-05-12T04:05:34;99368.28;;;11.00;92.66
47815;BME280;33579;50.058;18.130;2023-05-12T04:06:36;99371.47;;;11.04;92.68
47815;BME280;33579;50.058;18.130;2023-05-12T04:07:37;99360.69;;;11.07;92.91
47815;BME280;33579;50.058;18.130;2023-05-12T04:08:39;99369.91;;;11.22;94.03
47815;BME280;33579;50.058;18.130;2023-05-12T04:09:42;99370.19;;;11.29;93.56
47815;BME280;33579;50.058;18.130;2023-05-12T04:10:44;99369.09;;;11.32;93.17
47815;BME280;33579;50.058;18.130;2023-05-12T04:11:47;99369.09;;;11.32;93.85
47815;BME280;33579;50.058;18.130;2023-05-12T04:12:51;99362.16;;;11.31;94.20
47815;BME280;33579;50.058;18.130;2023-05-12T04:13:52;99357.59;;;11.33;94.62
47815;BME280;33579;50.058;18.130;2023-05-12T04:14:54;99359.81;;;11.37;94.48
47815;BME280;33579;50.058;18.130;2023-05-12T04:15:59;99360.81;;;11.46;94.47
47815;BME280;33579;50.058;18.130;2023-05-12T04:17:01;99369.81;;;11.53;93.84
47815;BME280;33579;50.058;18.130;2023-05-12T04:18:02;99365.56;;;11.62;93.68
47815;BME280;33579;50.058;18.130;2023-05-12T04:19:04;99366.81;;;11.68;93.45
47815;BME280;33579;50.058;18.130;2023-05-12T04:20:06;99371.41;;;11.76;92.79
47815;BME280;33579;50.058;18.130;2023-05-12T04:21:08;99374.59;;;11.79;92.50
47815;BME280;33579;50.058;18.130;2023-05-12T04:22:10;99374.03;;;11.86;92.23
47815;BME280;33579;50.058;18.130;2023-05-12T04:23:11;99368.06;;;11.93;92.20
47815;BME280;33579;50.058;18.130;2023-05-12T04:24:13;99369.31;;;11.99;91.58
47815;BME280;33579;50.058;18.130;2023-05-12T04:25:15;99375.75;;;12.06;91.52
47815;BME280;33579;50.058;18.130;2023-05-12T04:26:16;99379.78;;;12.11;91.61
47815;BME280;33579;50.058;18.130;2023-05-12T04:27:18;99383.38;;;12.19;91.60
47815;BME280;33579;50.058;18.130;2023-05-12T04:28:19;99375.88;;;12.25;91.13
47815;BME280;33579;50.058;18.130;2023-05-12T04:29:21;99377.94;;;12.31;91.28
47815;BME280;33579;50.058;18.130;2023-05-12T04:30:23;99381.16;;;12.34;91.10
47815;BME280;33579;50.058;18.130;2023-05-12T04:31:25;99376.25;;;12.40;91.09
47815;BME280;33579;50.058;18.130;2023-05-12T04:32:26;99388.91;;;12.46;90.77
47815;BME280;33579;50.058;18.130;2023-05-12T04:33:29;99390.72;;;12.55;90.13
47815;BME280;33579;50.058;18.130;2023-05-12T04:34:30;99381.66;;;12.58;89.86
47815;BME280;33579;50.058;18.130;2023-05-12T04:35:32;99391.66;;;12.64;90.13
47815;BME280;33579;50.058;18.130;2023-05-12T04:36:34;99385.28;;;12.67;90.22
47815;BME280;33579;50.058;18.130;2023-05-12T04:37:36;99395.94;;;12.75;89.80
47815;BME280;33579;50.058;18.130;2023-05-12T04:38:38;99392.88;;;12.79;89.81
47815;BME280;33579;50.058;18.130;2023-05-12T04:39:40;99392.56;;;12.83;88.98
47815;BME280;33579;50.058;18.130;2023-05-12T04:40:42;99391.88;;;12.90;89.73
47815;BME280;33579;50.058;18.130;2023-05-12T04:41:43;99390.59;;;12.95;89.31
47815;BME280;33579;50.058;18.130;2023-05-12T04:42:45;99388.34;;;13.00;89.38
47815;BME280;33579;50.058;18.130;2023-05-12T04:43:48;99383.56;;;13.13;88.98
47815;BME280;33579;50.058;18.130;2023-05-12T04:44:53;99389.63;;;13.24;88.34
47815;BME280;33579;50.058;18.130;2023-05-12T04:45:54;99387.91;;;13.32;87.78
47815;BME280;33579;50.058;18.130;2023-05-12T04:46:58;99380.72;;;13.34;87.43
47815;BME280;33579;50.058;18.130;2023-05-12T04:48:00;99387.63;;;13.45;87.05
47815;BME280;33579;50.058;18.130;2023-05-12T04:49:01;99387.19;;;13.50;87.22
47815;BME280;33579;50.058;18.130;2023-05-12T04:50:03;99384.09;;;13.55;87.78
47815;BME280;33579;50.058;18.130;2023-05-12T04:51:05;99387.78;;;13.62;87.82
47815;BME280;33579;50.058;18.130;2023-05-12T04:52:07;99387.66;;;13.63;87.44
47815;BME280;33579;50.058;18.130;2023-05-12T04:53:08;99377.91;;;13.64;87.45
47815;BME280;33579;50.058;18.130;2023-05-12T04:54:12;99377.31;;;13.70;87.78
47815;BME280;33579;50.058;18.130;2023-05-12T04:55:14;99382.91;;;13.67;88.60
47815;BME280;33579;50.058;18.130;2023-05-12T04:56:15;99386.00;;;13.62;89.05
47815;BME280;33579;50.058;18.130;2023-05-12T04:57:18;99383.06;;;13.66;89.17
47815;BME280;33579;50.058;18.130;2023-05-12T04:58:19;99387.78;;;13.62;88.56
47815;BME280;33579;50.058;18.130;2023-05-12T04:59:21;99378.44;;;13.68;88.72
47815;BME280;33579;50.058;18.130;2023-05-12T05:00:24;99382.53;;;13.80;88.30
47815;BME280;33579;50.058;18.130;2023-05-12T05:01:26;99385.50;;;13.95;87.95
47815;BME280;33579;50.058;18.130;2023-05-12T05:02:28;99389.56;;;14.08;87.48
47815;BME280;33579;50.058;18.130;2023-05-12T05:03:30;99389.88;;;14.23;87.05
47815;BME280;33579;50.058;18.130;2023-05-12T05:04:32;99383.50;;;14.33;86.45
47815;BME280;33579;50.058;18.130;2023-05-12T05:05:33;99388.88;;;14.42;85.96
47815;BME280;33579;50.058;18.130;2023-05-12T05:06:35;99391.56;;;14.50;85.94
47815;BME280;33579;50.058;18.130;2023-05-12T05:07:37;99389.63;;;14.60;85.64
47815;BME280;33579;50.058;18.130;2023-05-12T05:08:38;99389.28;;;14.73;84.30
47815;BME280;33579;50.058;18.130;2023-05-12T05:09:40;99381.38;;;14.82;83.48
47815;BME280;33579;50.058;18.130;2023-05-12T05:10:41;99389.03;;;14.93;82.86
47815;BME280;33579;50.058;18.130;2023-05-12T05:11:43;99395.06;;;15.03;82.62
47815;BME280;33579;50.058;18.130;2023-05-12T05:12:45;99388.81;;;15.13;82.48
47815;BME280;33579;50.058;18.130;2023-05-12T05:13:47;99384.56;;;15.20;81.79
47815;BME280;33579;50.058;18.130;2023-05-12T05:14:51;99389.69;;;15.22;81.22
47815;BME280;33579;50.058;18.130;2023-05-12T05:15:53;99392.69;;;15.27;81.17
47815;BME280;33579;50.058;18.130;2023-05-12T05:16:57;99391.38;;;15.31;81.53
47815;BME280;33579;50.058;18.130;2023-05-12T05:17:58;99391.56;;;15.38;79.64
47815;BME280;33579;50.058;18.130;2023-05-12T05:19:02;99381.19;;;15.53;79.04
47815;BME280;33579;50.058;18.130;2023-05-12T05:20:08;99378.94;;;15.74;77.59
47815;BME280;33579;50.058;18.130;2023-05-12T05:21:13;99381.13;;;15.96;76.92
47815;BME280;33579;50.058;18.130;2023-05-12T05:22:14;99384.13;;;16.09;75.22
47815;BME280;33579;50.058;18.130;2023-05-12T05:23:16;99384.78;;;16.28;75.33
47815;BME280;33579;50.058;18.130;2023-05-12T05:24:18;99377.16;;;16.50;74.50